Time;durP1;ratioP1;P1;durP2;ratioP2;P2;SDS_P1;SDS_P2;PMS_P1;PMS_P2;Temp;Humidity;BMP_temperature;BMP_pressure;BME280_temperature;BME280_humidity;BME280_pressure;Samples;Min_cycle;Max_cycle;Signal;HPM_P1;HPM_P2
2024/03/19 00:00:12;;;;;;;8.80;5.10;;;;;;;;;;485874;28;969;-75
2024/03/19 00:00:28;;;;;;;8.70;5.10;;;;;;;;;;484384;28;1426;-74
2024/03/19 00:00:45;;;;;;;8.30;4.95;;;;;;;;;;482769;28;1353;-75
2024/03/19 00:01:04;;;;;;;7.53;4.75;;;;;;;;;;485026;28;1028;-74
2024/03/19 00:01:19;;;;;;;8.10;4.90;;;;;;;;;;488405;28;1273;-74
2024/03/19 00:01:35;;;;;;;7.57;5.00;;;;;;;;;;487373;28;1212;-75
2024/03/19 00:01:51;;;;;;;7.15;4.85;;;;;;;;;;486972;28;1298;-74
2024/03/19 00:02:07;;;;;;;8.80;5.13;;;;;;;;;;485129;28;1370;-75
2024/03/19 00:02:23;;;;;;;9.52;5.22;;;;;;;;;;486462;28;1312;-75
2024/03/19 00:02:39;;;;;;;8.40;5.00;;;;;;;;;;486372;28;1410;-75
2024/03/19 00:02:55;;;;;;;8.57;4.78;;;;;;;;;;488277;28;1278;-74
2024/03/19 00:03:10;;;;;;;7.95;4.68;;;;;;;;;;487782;28;1118;-75
2024/03/19 00:03:26;;;;;;;7.45;4.90;;;;;;;;;;487724;28;1289;-74
2024/03/19 00:03:41;;;;;;;7.03;4.47;;;;;;;;;;487272;28;1214;-75
2024/03/19 00:03:57;;;;;;;7.20;4.25;;;;;;;;;;487626;28;1008;-75
2024/03/19 00:04:13;;;;;;;7.22;4.50;;;;;;;;;;488075;28;1372;-75
2024/03/19 00:04:28;;;;;;;7.27;4.53;;;;;;;;;;488855;28;1060;-75
2024/03/19 00:04:44;;;;;;;8.23;4.70;;;;;;;;;;486805;28;1206;-74
2024/03/19 00:05:00;;;;;;;8.57;5.15;;;;;;;;;;487621;28;1361;-75
2024/03/19 00:05:16;;;;;;;8.05;5.25;;;;;;;;;;484986;28;1258;-74
2024/03/19 00:05:31;;;;;;;7.87;4.90;;;;;;;;;;485512;28;969;-75
2024/03/19 00:05:47;;;;;;;9.68;4.90;;;;;;;;;;485791;28;1286;-75
2024/03/19 00:06:03;;;;;;;9.65;4.95;;;;;;;;;;485373;28;1116;-75
2024/03/19 00:06:19;;;;;;;7.93;4.67;;;;;;;;;;487658;28;1200;-75
2024/03/19 00:06:34;;;;;;;8.70;4.80;;;;;;;;;;488132;28;1354;-75
2024/03/19 00:06:51;;;;;;;8.95;4.90;;;;;;;;;;489249;28;1012;-74
2024/03/19 00:07:07;;;;;;;8.50;4.93;;;;;;;;;;488698;28;1402;-75
2024/03/19 00:07:22;;;;;;;9.27;5.18;;;;;;;;;;488384;28;1198;-74
2024/03/19 00:07:38;;;;;;;10.98;5.40;;;;;;;;;;489320;28;1072;-74
2024/03/19 00:07:54;;;;;;;9.77;5.20;;;;;;;;;;488571;28;1246;-75
2024/03/19 00:08:09;;;;;;;7.95;5.00;;;;;;;;;;489295;28;1116;-75
2024/03/19 00:08:26;;;;;;;8.18;5.10;;;;;;;;;;492328;28;1965;-74
2024/03/19 00:08:41;;;;;;;7.97;4.93;;;;;;;;;;489091;28;1369;-75
2024/03/19 00:08:57;;;;;;;9.77;5.13;;;;;;;;;;489793;28;1128;-75
2024/03/19 00:09:12;;;;;;;10.43;5.20;;;;;;;;;;488002;28;1481;-74
2024/03/19 00:09:28;;;;;;;9.40;5.00;;;;;;;;;;487670;28;1153;-75
2024/03/19 00:09:44;;;;;;;9.70;5.13;;;;;;;;;;487274;28;1042;-75
2024/03/19 00:09:59;;;;;;;8.70;5.33;;;;;;;;;;485002;28;1182;-74
2024/03/19 00:10:15;;;;;;;8.63;5.35;;;;;;;;;;485915;28;1128;-74
2024/03/19 00:10:31;;;;;;;10.60;5.38;;;;;;;;;;487721;28;1028;-75
2024/03/19 00:10:47;;;;;;;10.40;5.35;;;;;;;;;;487317;28;1301;-74
2024/03/19 00:11:03;;;;;;;9.37;5.03;;;;;;;;;;488505;28;1318;-74
2024/03/19 00:11:19;;;;;;;9.20;4.97;;;;;;;;;;486282;28;1228;-75
2024/03/19 00:11:34;;;;;;;7.75;4.65;;;;;;;;;;487871;28;1386;-75
2024/03/19 00:11:50;;;;;;;8.65;4.75;;;;;;;;;;487593;28;1285;-74
2024/03/19 00:12:06;;;;;;;9.52;4.97;;;;;;;;;;488506;28;1198;-74
2024/03/19 00:12:24;;;;;;;9.32;5.00;;;;;;;;;;489717;28;1124;-75
2024/03/19 00:12:40;;;;;;;8.27;5.03;;;;;;;;;;487911;28;1474;-75
2024/03/19 00:12:55;;;;;;;10.13;5.40;;;;;;;;;;486230;28;1247;-75
2024/03/19 00:13:11;;;;;;;10.70;5.38;;;;;;;;;;487405;28;1217;-75
2024/03/19 00:13:27;;;;;;;9.07;5.15;;;;;;;;;;488762;28;937;-74
2024/03/19 00:13:43;;;;;;;8.77;5.15;;;;;;;;;;486391;28;1612;-74
2024/03/19 00:13:59;;;;;;;7.95;5.07;;;;;;;;;;485912;28;1035;-75
2024/03/19 00:14:15;;;;;;;8.88;5.20;;;;;;;;;;486342;28;1356;-75
2024/03/19 00:14:31;;;;;;;9.10;5.20;;;;;;;;;;485249;28;1341;-75
2024/03/19 00:14:46;;;;;;;8.52;5.25;;;;;;;;;;486483;28;1290;-75
2024/03/19 00:15:05;;;;;;;8.88;5.30;;;;;;;;;;488633;28;1108;-74
2024/03/19 00:15:21;;;;;;;8.68;4.93;;;;;;;;;;488414;28;1303;-75
2024/03/19 00:15:36;;;;;;;8.38;4.80;;;;;;;;;;487172;28;1408;-75
2024/03/19 00:15:52;;;;;;;8.83;5.00;;;;;;;;;;485441;28;1219;-75
2024/03/19 00:16:08;;;;;;;9.50;5.55;;;;;;;;;;483879;28;1315;-74
2024/03/19 00:16:24;;;;;;;10.50;5.68;;;;;;;;;;483242;28;1279;-75
2024/03/19 00:16:40;;;;;;;10.52;5.35;;;;;;;;;;485063;28;1390;-75
2024/03/19 00:16:56;;;;;;;9.27;5.10;;;;;;;;;;485127;28;1240;-75
2024/03/19 00:17:12;;;;;;;9.07;5.10;;;;;;;;;;484994;28;997;-74
2024/03/19 00:17:27;;;;;;;10.23;5.47;;;;;;;;;;484295;28;1232;-75
2024/03/19 00:17:43;;;;;;;9.07;5.32;;;;;;;;;;487109;28;1219;-74
2024/03/19 00:17:59;;;;;;;8.52;5.20;;;;;;;;;;486510;28;1227;-75
2024/03/19 00:18:17;;;;;;;9.52;5.53;;;;;;;;;;485987;28;1033;-75
2024/03/19 00:18:33;;;;;;;8.88;5.68;;;;;;;;;;488174;28;1028;-75
2024/03/19 00:18:48;;;;;;;9.07;5.55;;;;;;;;;;488364;28;1262;-75
2024/03/19 00:19:04;;;;;;;9.73;5.20;;;;;;;;;;488195;28;1084;-74
2024/03/19 00:19:20;;;;;;;9.48;5.25;;;;;;;;;;489909;28;1120;-74
2024/03/19 00:19:36;;;;;;;8.55;5.30;;;;;;;;;;488866;28;1267;-75
2024/03/19 00:19:52;;;;;;;8.93;5.20;;;;;;;;;;490317;28;1259;-74
2024/03/19 00:20:09;;;;;;;9.05;5.00;;;;;;;;;;487449;28;1197;-74
2024/03/19 00:20:25;;;;;;;9.30;5.10;;;;;;;;;;487649;28;1251;-75
2024/03/19 00:20:41;;;;;;;9.48;5.30;;;;;;;;;;486074;28;1334;-74
2024/03/19 00:20:57;;;;;;;8.68;4.93;;;;;;;;;;486539;28;1263;-75
2024/03/19 00:21:13;;;;;;;7.97;4.97;;;;;;;;;;486614;28;1228;-74
2024/03/19 00:21:29;;;;;;;7.55;5.15;;;;;;;;;;485190;28;1379;-75
2024/03/19 00:21:45;;;;;;;7.47;5.18;;;;;;;;;;486767;28;1312;-74
2024/03/19 00:22:01;;;;;;;8.68;5.10;;;;;;;;;;487358;28;1193;-74
2024/03/19 00:22:17;;;;;;;8.63;5.00;;;;;;;;;;485055;28;1306;-75
2024/03/19 00:22:32;;;;;;;8.90;5.32;;;;;;;;;;487535;28;1326;-74
2024/03/19 00:22:48;;;;;;;11.27;5.63;;;;;;;;;;487202;28;1144;-74
2024/03/19 00:23:04;;;;;;;11.82;5.40;;;;;;;;;;485481;28;1281;-74
2024/03/19 00:23:20;;;;;;;10.02;5.13;;;;;;;;;;486123;28;1407;-75
2024/03/19 00:23:37;;;;;;;8.65;5.03;;;;;;;;;;486087;28;1437;-75
2024/03/19 00:23:53;;;;;;;7.97;4.85;;;;;;;;;;487694;28;1490;-74
2024/03/19 00:24:08;;;;;;;8.63;5.05;;;;;;;;;;489762;28;1322;-75
2024/03/19 00:24:24;;;;;;;10.00;5.37;;;;;;;;;;490924;28;1287;-74
2024/03/19 00:24:40;;;;;;;9.70;5.30;;;;;;;;;;489058;28;1486;-74
2024/03/19 00:24:57;;;;;;;9.45;5.18;;;;;;;;;;489758;28;1402;-75
2024/03/19 00:25:13;;;;;;;9.95;5.30;;;;;;;;;;486988;28;1360;-76
2024/03/19 00:25:29;;;;;;;9.25;5.35;;;;;;;;;;487141;28;867;-75
2024/03/19 00:25:46;;;;;;;8.60;5.25;;;;;;;;;;487666;28;1372;-74
2024/03/19 00:26:01;;;;;;;8.48;5.05;;;;;;;;;;488413;28;1200;-75
2024/03/19 00:26:17;;;;;;;8.25;4.88;;;;;;;;;;487995;28;1195;-75
2024/03/19 00:26:36;;;;;;;7.57;5.07;;;;;;;;;;489394;28;1033;-74
2024/03/19 00:26:51;;;;;;;10.38;5.78;;;;;;;;;;489235;28;1365;-74
2024/03/19 00:27:07;;;;;;;10.77;6.07;;;;;;;;;;491375;28;1281;-74
2024/03/19 00:27:23;;;;;;;9.98;5.50;;;;;;;;;;488339;28;1274;-75
2024/03/19 00:27:39;;;;;;;10.07;5.25;;;;;;;;;;488794;28;1038;-75
2024/03/19 00:27:54;;;;;;;8.85;5.45;;;;;;;;;;488850;28;1383;-74
2024/03/19 00:28:10;;;;;;;8.75;5.55;;;;;;;;;;488575;28;1240;-75
2024/03/19 00:28:26;;;;;;;9.80;5.70;;;;;;;;;;488755;28;1934;-74
2024/03/19 00:28:42;;;;;;;10.10;5.70;;;;;;;;;;488698;28;1290;-75
2024/03/19 00:28:58;;;;;;;9.68;5.60;;;;;;;;;;488426;28;1061;-74
2024/03/19 00:29:14;;;;;;;10.20;6.00;;;;;;;;;;486771;28;1253;-75
2024/03/19 00:29:30;;;;;;;10.18;6.07;;;;;;;;;;486998;28;1494;-74
2024/03/19 00:29:46;;;;;;;9.75;5.78;;;;;;;;;;484458;28;1472;-74
2024/03/19 00:30:03;;;;;;;9.23;5.63;;;;;;;;;;484485;28;1367;-75
2024/03/19 00:30:19;;;;;;;11.90;5.82;;;;;;;;;;487033;28;1321;-73
2024/03/19 00:30:34;;;;;;;12.13;5.85;;;;;;;;;;488352;28;1114;-74
2024/03/19 00:30:50;;;;;;;12.50;6.00;;;;;;;;;;487742;28;1062;-75
2024/03/19 00:31:06;;;;;;;12.77;5.97;;;;;;;;;;488886;28;1161;-75
2024/03/19 00:31:22;;;;;;;10.65;5.65;;;;;;;;;;491583;28;921;-74
2024/03/19 00:31:38;;;;;;;10.25;5.70;;;;;;;;;;492920;27;1041;-74
2024/03/19 00:31:54;;;;;;;9.45;5.70;;;;;;;;;;492248;28;1237;-74
2024/03/19 00:32:10;;;;;;;9.40;5.60;;;;;;;;;;492587;28;1083;-75
2024/03/19 00:32:27;;;;;;;9.70;5.50;;;;;;;;;;490027;28;1483;-75
2024/03/19 00:32:42;;;;;;;10.45;5.47;;;;;;;;;;488997;28;1458;-74
2024/03/19 00:32:59;;;;;;;11.73;5.63;;;;;;;;;;488306;28;1065;-75
2024/03/19 00:33:15;;;;;;;10.52;5.80;;;;;;;;;;485655;28;1369;-74
2024/03/19 00:33:31;;;;;;;9.23;5.57;;;;;;;;;;486275;28;1310;-74
2024/03/19 00:33:48;;;;;;;10.15;5.60;;;;;;;;;;487401;28;1302;-75
2024/03/19 00:34:04;;;;;;;9.80;5.70;;;;;;;;;;487031;28;1352;-75
2024/03/19 00:34:20;;;;;;;11.85;5.93;;;;;;;;;;488866;28;1315;-74
2024/03/19 00:34:36;;;;;;;12.07;5.75;;;;;;;;;;488149;28;1284;-74
2024/03/19 00:34:52;;;;;;;9.60;5.50;;;;;;;;;;488474;28;1259;-75
2024/03/19 00:35:09;;;;;;;8.80;5.55;;;;;;;;;;487679;28;1276;-75
2024/03/19 00:35:24;;;;;;;7.85;5.15;;;;;;;;;;489824;28;1352;-75
2024/03/19 00:35:46;;;;;;;6.90;5.00;;;;;;;;;;490489;28;933;-75
2024/03/19 00:36:09;;;;;;;9.02;5.50;;;;;;;;;;489990;28;956;-74
2024/03/19 00:36:25;;;;;;;9.20;5.53;;;;;;;;;;490644;28;1388;-75
2024/03/19 00:36:41;;;;;;;10.27;5.88;;;;;;;;;;488259;28;1256;-74
2024/03/19 00:36:59;;;;;;;9.87;5.60;;;;;;;;;;485963;28;1156;-75
2024/03/19 00:37:15;;;;;;;8.27;5.45;;;;;;;;;;486969;28;1311;-74
2024/03/19 00:37:31;;;;;;;8.45;5.32;;;;;;;;;;488238;28;1361;-74
2024/03/19 00:37:49;;;;;;;9.88;5.65;;;;;;;;;;487970;28;1376;-75
2024/03/19 00:38:05;;;;;;;10.68;5.90;;;;;;;;;;488657;28;1422;-74
2024/03/19 00:38:22;;;;;;;9.30;5.78;;;;;;;;;;487692;28;1096;-75
2024/03/19 00:38:38;;;;;;;9.32;5.90;;;;;;;;;;490154;28;1302;-74
2024/03/19 00:38:53;;;;;;;9.77;5.75;;;;;;;;;;489593;28;1190;-75
2024/03/19 00:39:13;;;;;;;9.82;5.43;;;;;;;;;;489650;28;1003;-74
2024/03/19 00:39:30;;;;;;;8.82;5.60;;;;;;;;;;488995;28;1360;-75
2024/03/19 00:39:46;;;;;;;9.13;5.43;;;;;;;;;;487786;28;1207;-75
2024/03/19 00:40:02;;;;;;;10.90;5.60;;;;;;;;;;485908;28;1406;-74
2024/03/19 00:40:18;;;;;;;11.70;5.88;;;;;;;;;;486859;28;1215;-75
2024/03/19 00:40:34;;;;;;;11.90;5.90;;;;;;;;;;488127;28;1172;-75
2024/03/19 00:40:51;;;;;;;12.43;5.80;;;;;;;;;;488923;28;1229;-75
2024/03/19 00:41:06;;;;;;;13.02;5.78;;;;;;;;;;487555;28;1289;-75
2024/03/19 00:41:22;;;;;;;10.52;5.70;;;;;;;;;;488958;28;1348;-74
2024/03/19 00:41:39;;;;;;;8.88;5.60;;;;;;;;;;486508;28;1251;-74
2024/03/19 00:41:55;;;;;;;10.00;5.63;;;;;;;;;;486533;28;1117;-74
2024/03/19 00:42:11;;;;;;;9.77;5.70;;;;;;;;;;488247;28;1291;-74
2024/03/19 00:42:27;;;;;;;9.52;5.80;;;;;;;;;;486965;28;1576;-75
2024/03/19 00:42:46;;;;;;;11.40;5.95;;;;;;;;;;486546;28;1457;-74
2024/03/19 00:43:05;;;;;;;11.52;5.93;;;;;;;;;;486891;28;1400;-75
2024/03/19 00:43:21;;;;;;;9.18;5.53;;;;;;;;;;483951;28;1358;-75
2024/03/19 00:43:38;;;;;;;8.38;5.13;;;;;;;;;;487904;28;1056;-75
2024/03/19 00:43:54;;;;;;;8.73;5.40;;;;;;;;;;486595;28;1464;-75
2024/03/19 00:44:10;;;;;;;8.30;5.55;;;;;;;;;;488451;28;1009;-75
2024/03/19 00:44:26;;;;;;;9.20;5.47;;;;;;;;;;487306;28;1436;-75
2024/03/19 00:44:41;;;;;;;9.87;5.53;;;;;;;;;;486535;28;1221;-76
2024/03/19 00:44:58;;;;;;;10.07;5.75;;;;;;;;;;488082;28;1019;-75
2024/03/19 00:45:14;;;;;;;12.45;5.82;;;;;;;;;;488429;28;1361;-75
2024/03/19 00:45:30;;;;;;;12.40;5.60;;;;;;;;;;487307;28;1393;-76
2024/03/19 00:45:47;;;;;;;11.52;5.72;;;;;;;;;;488356;28;1336;-75
2024/03/19 00:46:03;;;;;;;9.13;5.60;;;;;;;;;;487223;28;1427;-75
2024/03/19 00:46:19;;;;;;;9.77;5.63;;;;;;;;;;488592;28;1401;-74
2024/03/19 00:46:35;;;;;;;11.05;5.90;;;;;;;;;;488228;28;1315;-75
2024/03/19 00:46:50;;;;;;;10.43;6.05;;;;;;;;;;487879;28;1265;-76
2024/03/19 00:47:06;;;;;;;10.43;5.87;;;;;;;;;;485299;28;1146;-75
2024/03/19 00:47:22;;;;;;;10.55;6.07;;;;;;;;;;486390;28;1262;-75
2024/03/19 00:47:38;;;;;;;10.48;5.97;;;;;;;;;;484580;28;1251;-75
2024/03/19 00:47:54;;;;;;;9.95;5.70;;;;;;;;;;486953;28;1314;-75
2024/03/19 00:48:10;;;;;;;9.60;5.45;;;;;;;;;;487043;28;1049;-75
2024/03/19 00:48:28;;;;;;;10.57;5.68;;;;;;;;;;486741;28;1953;-75
2024/03/19 00:48:43;;;;;;;11.60;5.88;;;;;;;;;;488645;28;1440;-76
2024/03/19 00:49:01;;;;;;;10.73;5.50;;;;;;;;;;489601;28;1215;-75
2024/03/19 00:49:17;;;;;;;9.15;5.47;;;;;;;;;;488796;28;1391;-75
2024/03/19 00:49:33;;;;;;;9.98;5.85;;;;;;;;;;490175;28;1328;-75
2024/03/19 00:49:48;;;;;;;9.37;5.90;;;;;;;;;;493431;28;1320;-75
2024/03/19 00:50:05;;;;;;;8.40;5.80;;;;;;;;;;488583;28;1452;-75
2024/03/19 00:50:21;;;;;;;9.07;5.90;;;;;;;;;;487625;28;1370;-76
2024/03/19 00:50:37;;;;;;;10.90;6.00;;;;;;;;;;488078;28;1077;-75
2024/03/19 00:50:53;;;;;;;11.48;5.90;;;;;;;;;;486146;28;1325;-75
2024/03/19 00:51:09;;;;;;;10.32;5.82;;;;;;;;;;485120;28;918;-75
2024/03/19 00:51:25;;;;;;;9.77;5.80;;;;;;;;;;485691;28;1377;-75
2024/03/19 00:51:41;;;;;;;10.48;5.95;;;;;;;;;;487723;28;1116;-75
2024/03/19 00:51:56;;;;;;;10.52;5.95;;;;;;;;;;491668;28;1273;-75
2024/03/19 00:52:12;;;;;;;9.80;5.83;;;;;;;;;;486592;28;1322;-75
2024/03/19 00:52:28;;;;;;;9.55;5.88;;;;;;;;;;488469;28;1349;-75
2024/03/19 00:52:44;;;;;;;8.57;5.63;;;;;;;;;;489209;28;1219;-75
2024/03/19 00:52:59;;;;;;;8.13;5.47;;;;;;;;;;488482;28;949;-75
2024/03/19 00:53:15;;;;;;;9.37;5.70;;;;;;;;;;488481;28;969;-75
2024/03/19 00:53:31;;;;;;;9.77;5.60;;;;;;;;;;489104;28;1035;-75
2024/03/19 00:53:47;;;;;;;10.07;5.60;;;;;;;;;;488601;28;1366;-75
2024/03/19 00:54:02;;;;;;;9.05;5.70;;;;;;;;;;486883;28;1143;-75
2024/03/19 00:54:18;;;;;;;10.18;5.63;;;;;;;;;;489101;28;957;-74
2024/03/19 00:54:34;;;;;;;10.80;5.60;;;;;;;;;;488406;28;1225;-75
2024/03/19 00:54:50;;;;;;;9.13;5.60;;;;;;;;;;489211;28;1318;-74
2024/03/19 00:55:06;;;;;;;9.65;5.93;;;;;;;;;;488040;28;1473;-75
2024/03/19 00:55:22;;;;;;;11.93;6.30;;;;;;;;;;487440;28;1104;-75
2024/03/19 00:55:38;;;;;;;10.77;6.03;;;;;;;;;;489076;28;1329;-74
2024/03/19 00:55:54;;;;;;;9.63;5.72;;;;;;;;;;490318;28;1199;-75
2024/03/19 00:56:10;;;;;;;10.23;5.72;;;;;;;;;;487751;28;1157;-75
2024/03/19 00:56:26;;;;;;;10.68;5.60;;;;;;;;;;488049;28;930;-75
2024/03/19 00:56:42;;;;;;;9.50;5.43;;;;;;;;;;488650;28;1036;-75
2024/03/19 00:56:57;;;;;;;10.40;5.70;;;;;;;;;;490469;28;1417;-76
2024/03/19 00:57:13;;;;;;;11.80;5.78;;;;;;;;;;488269;28;1282;-75
2024/03/19 00:57:29;;;;;;;11.77;5.80;;;;;;;;;;491777;28;1056;-75
2024/03/19 00:57:45;;;;;;;11.55;5.95;;;;;;;;;;488159;28;1343;-75
2024/03/19 00:58:01;;;;;;;10.02;5.82;;;;;;;;;;489652;28;918;-75
2024/03/19 00:58:19;;;;;;;9.60;5.70;;;;;;;;;;488460;28;1203;-76
2024/03/19 00:58:34;;;;;;;9.25;5.47;;;;;;;;;;487571;28;1380;-75
2024/03/19 00:58:50;;;;;;;8.80;5.38;;;;;;;;;;486420;28;1299;-75
2024/03/19 00:59:06;;;;;;;9.80;5.60;;;;;;;;;;483936;28;1275;-75
2024/03/19 00:59:22;;;;;;;10.88;5.75;;;;;;;;;;484935;28;1362;-75
2024/03/19 00:59:37;;;;;;;9.23;5.47;;;;;;;;;;486411;28;1041;-75
2024/03/19 00:59:53;;;;;;;9.32;5.78;;;;;;;;;;484808;28;1371;-76
2024/03/19 01:00:14;;;;;;;9.65;5.60;;;;;;;;;;485143;28;1013;-76
2024/03/19 01:00:29;;;;;;;9.18;5.57;;;;;;;;;;487757;28;953;-75
2024/03/19 01:00:46;;;;;;;10.70;5.80;;;;;;;;;;487833;28;1352;-76
2024/03/19 01:01:02;;;;;;;11.18;5.88;;;;;;;;;;488369;28;1390;-75
2024/03/19 01:01:17;;;;;;;9.90;5.68;;;;;;;;;;489293;28;1076;-75
2024/03/19 01:01:33;;;;;;;10.00;5.80;;;;;;;;;;487752;28;1197;-75
2024/03/19 01:01:49;;;;;;;9.90;6.10;;;;;;;;;;487429;28;1290;-74
2024/03/19 01:02:06;;;;;;;8.80;5.93;;;;;;;;;;487597;28;1234;-75
2024/03/19 01:02:22;;;;;;;8.48;5.70;;;;;;;;;;488207;28;1333;-76
2024/03/19 01:02:38;;;;;;;9.07;5.53;;;;;;;;;;489095;28;1266;-75
2024/03/19 01:02:54;;;;;;;10.90;5.72;;;;;;;;;;487770;28;1255;-76
2024/03/19 01:03:10;;;;;;;11.20;5.97;;;;;;;;;;487591;28;1303;-75
2024/03/19 01:03:25;;;;;;;9.82;5.70;;;;;;;;;;487201;28;1306;-75
2024/03/19 01:03:42;;;;;;;9.05;5.50;;;;;;;;;;487947;28;1065;-75
2024/03/19 01:04:04;;;;;;;10.05;5.43;;;;;;;;;;485538;28;1447;-75
2024/03/19 01:04:20;;;;;;;9.68;5.38;;;;;;;;;;485548;28;1352;-75
2024/03/19 01:04:36;;;;;;;9.83;5.77;;;;;;;;;;485975;28;1238;-76
2024/03/19 01:04:52;;;;;;;10.32;5.97;;;;;;;;;;485578;28;2416;-75
2024/03/19 01:05:08;;;;;;;9.52;5.53;;;;;;;;;;488870;28;1266;-76
2024/03/19 01:05:25;;;;;;;8.50;5.32;;;;;;;;;;485145;28;1339;-75
2024/03/19 01:05:40;;;;;;;9.07;5.53;;;;;;;;;;485130;28;1441;-75
2024/03/19 01:05:56;;;;;;;10.02;6.10;;;;;;;;;;483010;28;1386;-75
2024/03/19 01:06:12;;;;;;;9.88;6.00;;;;;;;;;;484404;28;1262;-74
2024/03/19 01:06:28;;;;;;;9.75;5.60;;;;;;;;;;486606;28;1298;-75
2024/03/19 01:06:43;;;;;;;10.33;5.40;;;;;;;;;;486658;28;1364;-75
2024/03/19 01:07:00;;;;;;;9.85;5.50;;;;;;;;;;486597;28;1128;-75
2024/03/19 01:07:15;;;;;;;11.07;5.72;;;;;;;;;;489896;28;959;-74
2024/03/19 01:07:31;;;;;;;12.25;5.82;;;;;;;;;;486330;28;1408;-75
2024/03/19 01:07:47;;;;;;;11.20;6.00;;;;;;;;;;486280;28;1238;-75
2024/03/19 01:08:03;;;;;;;10.17;6.10;;;;;;;;;;488653;28;1203;-75
2024/03/19 01:08:18;;;;;;;9.65;5.80;;;;;;;;;;490447;28;1214;-75
2024/03/19 01:08:34;;;;;;;10.70;5.68;;;;;;;;;;488336;28;2017;-75
2024/03/19 01:08:50;;;;;;;11.43;5.85;;;;;;;;;;489089;28;1217;-75
2024/03/19 01:09:12;;;;;;;12.33;5.60;;;;;;;;;;491674;28;1406;-75
2024/03/19 01:09:27;;;;;;;10.18;5.28;;;;;;;;;;489916;28;973;-75
2024/03/19 01:09:43;;;;;;;8.75;5.53;;;;;;;;;;486533;28;1361;-75
2024/03/19 01:09:58;;;;;;;8.48;5.40;;;;;;;;;;487198;28;1069;-74
2024/03/19 01:10:14;;;;;;;7.70;5.13;;;;;;;;;;488166;28;1254;-74
2024/03/19 01:10:30;;;;;;;8.45;5.40;;;;;;;;;;488277;28;1217;-75
2024/03/19 01:10:46;;;;;;;9.40;5.35;;;;;;;;;;489277;28;1267;-75
2024/03/19 01:11:02;;;;;;;10.27;5.50;;;;;;;;;;490388;28;1020;-74
2024/03/19 01:11:18;;;;;;;10.90;5.40;;;;;;;;;;488092;28;1303;-75
2024/03/19 01:11:34;;;;;;;8.30;5.00;;;;;;;;;;486725;28;1430;-75
2024/03/19 01:11:50;;;;;;;6.60;5.00;;;;;;;;;;485575;28;1009;-74
2024/03/19 01:12:09;;;;;;;7.18;5.03;;;;;;;;;;487286;28;1297;-76
2024/03/19 01:12:25;;;;;;;6.05;4.55;;;;;;;;;;486904;28;1184;-75
2024/03/19 01:12:41;;;;;;;6.07;4.50;;;;;;;;;;486958;28;1172;-75
2024/03/19 01:12:57;;;;;;;6.43;4.60;;;;;;;;;;488453;28;1194;-75
2024/03/19 01:13:13;;;;;;;6.63;4.80;;;;;;;;;;488434;28;1171;-75
2024/03/19 01:13:32;;;;;;;6.70;4.78;;;;;;;;;;491083;28;1306;-75
2024/03/19 01:13:47;;;;;;;6.72;4.50;;;;;;;;;;487958;28;1451;-74
2024/03/19 01:14:03;;;;;;;7.03;4.53;;;;;;;;;;488078;28;1142;-75
2024/03/19 01:14:20;;;;;;;8.85;5.18;;;;;;;;;;486450;28;1226;-74
2024/03/19 01:14:36;;;;;;;9.30;5.50;;;;;;;;;;487787;28;1165;-76
2024/03/19 01:14:53;;;;;;;7.65;5.10;;;;;;;;;;487002;28;1436;-75
2024/03/19 01:15:09;;;;;;;7.18;4.97;;;;;;;;;;488368;28;1093;-74
2024/03/19 01:15:25;;;;;;;7.50;5.07;;;;;;;;;;488210;28;1267;-75
2024/03/19 01:15:41;;;;;;;7.30;5.00;;;;;;;;;;486401;28;1279;-75
2024/03/19 01:15:56;;;;;;;9.18;5.20;;;;;;;;;;486750;28;1020;-76
2024/03/19 01:16:12;;;;;;;10.60;5.70;;;;;;;;;;486738;28;1265;-75
2024/03/19 01:16:28;;;;;;;9.32;5.45;;;;;;;;;;486340;28;1109;-75
2024/03/19 01:16:43;;;;;;;8.93;5.20;;;;;;;;;;485586;28;1307;-75
2024/03/19 01:16:59;;;;;;;10.33;5.73;;;;;;;;;;484158;28;1212;-75
2024/03/19 01:17:15;;;;;;;11.63;6.00;;;;;;;;;;483832;28;1385;-75
2024/03/19 01:17:30;;;;;;;10.68;5.65;;;;;;;;;;485548;28;1108;-75
2024/03/19 01:17:46;;;;;;;8.77;5.33;;;;;;;;;;485862;28;1202;-75
2024/03/19 01:18:02;;;;;;;8.90;5.40;;;;;;;;;;486800;28;1353;-74
2024/03/19 01:18:17;;;;;;;9.40;5.47;;;;;;;;;;488074;28;1254;-75
2024/03/19 01:18:35;;;;;;;9.25;5.30;;;;;;;;;;488434;28;1339;-75
2024/03/19 01:18:50;;;;;;;10.02;5.38;;;;;;;;;;488127;28;1088;-75
2024/03/19 01:19:06;;;;;;;8.30;5.27;;;;;;;;;;488609;28;1100;-75
2024/03/19 01:19:39;;;;;;;8.80;5.25;;;;;;;;;;500798;27;20165;-73
2024/03/19 01:19:55;;;;;;;9.13;5.22;;;;;;;;;;495273;27;1286;-74
2024/03/19 01:20:11;;;;;;;8.85;5.40;;;;;;;;;;494027;28;1257;-74
2024/03/19 01:20:26;;;;;;;8.25;5.38;;;;;;;;;;493401;28;1392;-73
2024/03/19 01:20:42;;;;;;;7.47;4.97;;;;;;;;;;493365;27;1401;-73
2024/03/19 01:20:58;;;;;;;8.13;5.05;;;;;;;;;;490919;28;1215;-73
2024/03/19 01:21:13;;;;;;;9.85;5.47;;;;;;;;;;490266;28;1356;-73
2024/03/19 01:21:30;;;;;;;9.67;5.30;;;;;;;;;;491628;28;1244;-74
2024/03/19 01:21:46;;;;;;;8.80;5.00;;;;;;;;;;488939;28;1223;-74
2024/03/19 01:22:03;;;;;;;8.10;5.20;;;;;;;;;;488961;28;1029;-73
2024/03/19 01:22:19;;;;;;;7.38;5.03;;;;;;;;;;489286;28;1412;-73
2024/03/19 01:22:34;;;;;;;7.22;4.88;;;;;;;;;;489478;28;1324;-73
2024/03/19 01:22:50;;;;;;;6.97;4.80;;;;;;;;;;489322;28;1199;-74
2024/03/19 01:23:06;;;;;;;7.53;4.88;;;;;;;;;;489607;28;1349;-73
2024/03/19 01:23:22;;;;;;;8.27;5.10;;;;;;;;;;492317;28;1272;-73
2024/03/19 01:23:37;;;;;;;9.75;5.32;;;;;;;;;;493121;28;1248;-73
2024/03/19 01:23:53;;;;;;;9.47;5.23;;;;;;;;;;493311;28;1230;-74
2024/03/19 01:24:08;;;;;;;8.32;5.40;;;;;;;;;;492375;28;956;-73
2024/03/19 01:24:24;;;;;;;9.18;5.53;;;;;;;;;;490536;28;1342;-73
2024/03/19 01:24:41;;;;;;;8.93;5.37;;;;;;;;;;490331;28;998;-74
2024/03/19 01:24:58;;;;;;;8.02;5.03;;;;;;;;;;490216;28;1403;-73
2024/03/19 01:25:13;;;;;;;9.82;5.10;;;;;;;;;;490869;28;1526;-74
2024/03/19 01:25:29;;;;;;;10.73;5.50;;;;;;;;;;492406;28;1338;-73
2024/03/19 01:25:44;;;;;;;9.52;5.40;;;;;;;;;;492029;28;960;-74
2024/03/19 01:26:02;;;;;;;10.55;5.65;;;;;;;;;;490903;28;1341;-74
2024/03/19 01:26:18;;;;;;;8.98;5.63;;;;;;;;;;488660;28;1321;-73
2024/03/19 01:26:34;;;;;;;8.57;5.40;;;;;;;;;;492711;28;1282;-74
2024/03/19 01:26:50;;;;;;;9.15;5.57;;;;;;;;;;490058;28;1166;-73
2024/03/19 01:27:06;;;;;;;8.35;5.40;;;;;;;;;;490463;28;1302;-73
2024/03/19 01:27:22;;;;;;;7.40;5.13;;;;;;;;;;493845;28;1244;-73
2024/03/19 01:27:37;;;;;;;7.28;5.05;;;;;;;;;;490693;28;1281;-73
2024/03/19 01:27:53;;;;;;;7.87;5.23;;;;;;;;;;491679;28;1234;-73
2024/03/19 01:28:10;;;;;;;9.77;5.57;;;;;;;;;;489582;28;1293;-74
2024/03/19 01:28:25;;;;;;;10.63;5.57;;;;;;;;;;489881;28;1275;-74
2024/03/19 01:28:41;;;;;;;9.97;5.50;;;;;;;;;;487598;28;1302;-74
2024/03/19 01:28:56;;;;;;;8.70;5.15;;;;;;;;;;489933;28;1199;-74
2024/03/19 01:29:12;;;;;;;9.15;5.20;;;;;;;;;;490367;28;1305;-74
2024/03/19 01:29:28;;;;;;;10.33;5.40;;;;;;;;;;490021;28;1058;-73
2024/03/19 01:29:43;;;;;;;10.18;5.32;;;;;;;;;;491641;28;1258;-73
2024/03/19 01:29:59;;;;;;;11.00;5.70;;;;;;;;;;491503;28;1287;-73
2024/03/19 01:30:16;;;;;;;9.30;5.43;;;;;;;;;;489112;28;1384;-73
2024/03/19 01:30:32;;;;;;;8.20;5.30;;;;;;;;;;490527;28;964;-73
2024/03/19 01:30:48;;;;;;;9.63;5.72;;;;;;;;;;489353;28;1276;-73
2024/03/19 01:31:04;;;;;;;12.20;5.55;;;;;;;;;;490585;28;1335;-73
2024/03/19 01:31:20;;;;;;;11.00;5.22;;;;;;;;;;489488;28;1317;-73
2024/03/19 01:31:35;;;;;;;9.15;5.25;;;;;;;;;;488686;28;1344;-73
2024/03/19 01:31:51;;;;;;;10.13;5.50;;;;;;;;;;486978;28;1219;-74
2024/03/19 01:32:08;;;;;;;9.73;5.50;;;;;;;;;;487681;28;1384;-73
2024/03/19 01:32:24;;;;;;;8.57;5.13;;;;;;;;;;488908;28;1287;-73
2024/03/19 01:32:40;;;;;;;7.72;5.10;;;;;;;;;;490096;28;1314;-73
2024/03/19 01:32:55;;;;;;;7.60;5.40;;;;;;;;;;489428;28;1311;-73
2024/03/19 01:33:11;;;;;;;9.10;5.60;;;;;;;;;;489236;28;1021;-73
2024/03/19 01:33:27;;;;;;;10.15;5.82;;;;;;;;;;491739;28;1228;-75
2024/03/19 01:33:43;;;;;;;9.00;5.63;;;;;;;;;;491831;28;893;-73
2024/03/19 01:33:59;;;;;;;9.73;5.32;;;;;;;;;;491572;28;1031;-73
2024/03/19 01:34:14;;;;;;;9.18;5.50;;;;;;;;;;490699;28;1371;-74
2024/03/19 01:34:30;;;;;;;8.35;5.35;;;;;;;;;;488830;28;1344;-74
2024/03/19 01:34:46;;;;;;;9.05;5.13;;;;;;;;;;488861;28;1374;-73
2024/03/19 01:35:02;;;;;;;8.63;5.20;;;;;;;;;;490976;28;1048;-73
2024/03/19 01:35:18;;;;;;;9.02;5.38;;;;;;;;;;490034;28;1273;-73
2024/03/19 01:35:36;;;;;;;9.07;5.65;;;;;;;;;;490956;28;941;-74
2024/03/19 01:35:52;;;;;;;7.95;5.70;;;;;;;;;;490072;28;1047;-74
2024/03/19 01:36:07;;;;;;;8.83;6.00;;;;;;;;;;491232;28;1161;-74
2024/03/19 01:36:24;;;;;;;11.18;6.32;;;;;;;;;;492459;28;1037;-73
2024/03/19 01:36:39;;;;;;;11.90;6.40;;;;;;;;;;493068;28;1076;-74
2024/03/19 01:36:55;;;;;;;10.85;6.22;;;;;;;;;;493210;28;952;-74
2024/03/19 01:37:10;;;;;;;10.33;6.03;;;;;;;;;;494244;27;960;-73
2024/03/19 01:37:26;;;;;;;10.48;6.15;;;;;;;;;;493266;28;1228;-74
2024/03/19 01:37:42;;;;;;;10.33;6.20;;;;;;;;;;492990;28;904;-74
2024/03/19 01:37:57;;;;;;;10.25;6.03;;;;;;;;;;491257;28;1171;-73
2024/03/19 01:38:13;;;;;;;10.93;6.00;;;;;;;;;;492272;28;1275;-74
2024/03/19 01:38:29;;;;;;;8.93;5.57;;;;;;;;;;492377;28;885;-73
2024/03/19 01:38:44;;;;;;;9.02;5.68;;;;;;;;;;492220;28;1320;-75
2024/03/19 01:39:03;;;;;;;9.52;5.80;;;;;;;;;;492221;28;1037;-75
2024/03/19 01:39:22;;;;;;;10.63;5.80;;;;;;;;;;495356;28;1044;-75
2024/03/19 01:39:37;;;;;;;9.85;5.57;;;;;;;;;;493043;28;1359;-75